sensor_id;sensor_type;location;lat;lon;timestamp;temperature;humidity
516;DHT22;244;48.508;9.052;2023-04-04T00:01:16;3.10;2.90
516;DHT22;244;48.508;9.052;2023-04-04T00:03:43;3.10;2.90
516;DHT22;244;48.508;9.052;2023-04-04T00:06:10;3.00;2.90
516;DHT22;244;48.508;9.052;2023-04-04T00:08:38;3.00;3.00
516;DHT22;244;48.508;9.052;2023-04-04T00:11:05;3.00;3.00
516;DHT22;244;48.508;9.052;2023-04-04T00:13:32;3.00;3.10
516;DHT22;244;48.508;9.052;2023-04-04T00:15:59;3.00;3.20
516;DHT22;244;48.508;9.052;2023-04-04T00:18:25;2.90;3.80
516;DHT22;244;48.508;9.052;2023-04-04T00:20:52;2.90;3.20
516;DHT22;244;48.508;9.052;2023-04-04T00:23:19;2.90;3.30
516;DHT22;244;48.508;9.052;2023-04-04T00:25:50;2.90;3.30
516;DHT22;244;48.508;9.052;2023-04-04T00:28:17;2.80;3.30
516;DHT22;244;48.508;9.052;2023-04-04T00:30:44;2.80;3.40
516;DHT22;244;48.508;9.052;2023-04-04T00:33:11;2.80;3.40
516;DHT22;244;48.508;9.052;2023-04-04T00:35:38;2.70;3.40
516;DHT22;244;48.508;9.052;2023-04-04T00:38:05;2.70;3.50
516;DHT22;244;48.508;9.052;2023-04-04T00:40:32;2.70;3.60
516;DHT22;244;48.508;9.052;2023-04-04T00:43:00;2.60;3.60
516;DHT22;244;48.508;9.052;2023-04-04T00:45:27;2.60;3.60
516;DHT22;244;48.508;9.052;2023-04-04T00:47:56;2.60;3.80
516;DHT22;244;48.508;9.052;2023-04-04T00:50:24;2.60;3.80
516;DHT22;244;48.508;9.052;2023-04-04T00:52:51;2.50;3.80
516;DHT22;244;48.508;9.052;2023-04-04T00:55:18;2.50;3.90
516;DHT22;244;48.508;9.052;2023-04-04T00:57:45;2.40;3.80
516;DHT22;244;48.508;9.052;2023-04-04T01:00:14;2.40;3.90
516;DHT22;244;48.508;9.052;2023-04-04T01:02:41;2.40;3.90
516;DHT22;244;48.508;9.052;2023-04-04T01:05:08;2.30;4.00
516;DHT22;244;48.508;9.052;2023-04-04T01:07:37;2.30;4.10
516;DHT22;244;48.508;9.052;2023-04-04T01:10:05;2.30;4.10
516;DHT22;244;48.508;9.052;2023-04-04T01:12:33;2.20;4.10
516;DHT22;244;48.508;9.052;2023-04-04T01:15:00;2.20;4.30
516;DHT22;244;48.508;9.052;2023-04-04T01:17:28;2.20;4.40
516;DHT22;244;48.508;9.052;2023-04-04T01:20:00;2.10;4.30
516;DHT22;244;48.508;9.052;2023-04-04T01:22:29;2.10;4.50
516;DHT22;244;48.508;9.052;2023-04-04T01:24:58;2.10;4.60
516;DHT22;244;48.508;9.052;2023-04-04T01:27:27;2.00;4.80
516;DHT22;244;48.508;9.052;2023-04-04T01:29:54;2.00;4.90
516;DHT22;244;48.508;9.052;2023-04-04T01:32:27;2.00;5.00
516;DHT22;244;48.508;9.052;2023-04-04T01:35:01;2.00;5.10
516;DHT22;244;48.508;9.052;2023-04-04T01:37:35;1.90;5.00
516;DHT22;244;48.508;9.052;2023-04-04T01:40:09;1.90;5.10
516;DHT22;244;48.508;9.052;2023-04-04T01:42:40;1.80;5.20
516;DHT22;244;48.508;9.052;2023-04-04T01:45:09;1.80;5.30
516;DHT22;244;48.508;9.052;2023-04-04T01:47:37;1.80;5.50
516;DHT22;244;48.508;9.052;2023-04-04T01:50:06;1.80;5.60
516;DHT22;244;48.508;9.052;2023-04-04T01:52:33;1.80;5.70
516;DHT22;244;48.508;9.052;2023-04-04T01:55:00;1.80;5.70
516;DHT22;244;48.508;9.052;2023-04-04T01:57:27;1.70;5.70
516;DHT22;244;48.508;9.052;2023-04-04T01:59:55;1.70;6.00
516;DHT22;244;48.508;9.052;2023-04-04T02:02:23;1.70;5.90
516;DHT22;244;48.508;9.052;2023-04-04T02:04:50;1.70;6.00
516;DHT22;244;48.508;9.052;2023-04-04T02:07:16;1.60;6.50
516;DHT22;244;48.508;9.052;2023-04-04T02:09:43;1.60;5.90
516;DHT22;244;48.508;9.052;2023-04-04T02:12:10;1.60;5.90
516;DHT22;244;48.508;9.052;2023-04-04T02:14:37;1.60;6.10
516;DHT22;244;48.508;9.052;2023-04-04T02:17:06;1.50;6.20
516;DHT22;244;48.508;9.052;2023-04-04T02:19:33;1.50;6.20
516;DHT22;244;48.508;9.052;2023-04-04T02:22:00;1.50;6.30
516;DHT22;244;48.508;9.052;2023-04-04T02:24:27;1.50;6.40
516;DHT22;244;48.508;9.052;2023-04-04T02:26:54;1.40;6.30
516;DHT22;244;48.508;9.052;2023-04-04T02:29:20;1.40;6.50
516;DHT22;244;48.508;9.052;2023-04-04T02:31:47;1.40;6.60
516;DHT22;244;48.508;9.052;2023-04-04T02:34:16;1.40;6.70
516;DHT22;244;48.508;9.052;2023-04-04T02:36:42;1.40;6.70
516;DHT22;244;48.508;9.052;2023-04-04T02:39:09;1.30;7.20
516;DHT22;244;48.508;9.052;2023-04-04T02:41:36;1.30;6.70
516;DHT22;244;48.508;9.052;2023-04-04T02:44:03;1.30;6.80
516;DHT22;244;48.508;9.052;2023-04-04T02:46:30;1.30;6.90
516;DHT22;244;48.508;9.052;2023-04-04T02:48:57;1.20;6.90
516;DHT22;244;48.508;9.052;2023-04-04T02:51:25;1.20;6.90
516;DHT22;244;48.508;9.052;2023-04-04T02:53:52;1.20;7.00
516;DHT22;244;48.508;9.052;2023-04-04T02:56:19;1.20;7.00
516;DHT22;244;48.508;9.052;2023-04-04T02:58:45;1.20;7.10
516;DHT22;244;48.508;9.052;2023-04-04T03:01:12;1.20;7.10
516;DHT22;244;48.508;9.052;2023-04-04T03:03:39;1.10;7.10
516;DHT22;244;48.508;9.052;2023-04-04T03:06:06;1.10;7.10
516;DHT22;244;48.508;9.052;2023-04-04T03:08:34;1.10;7.20
516;DHT22;244;48.508;9.052;2023-04-04T03:11:01;1.10;7.20
516;DHT22;244;48.508;9.052;2023-04-04T03:13:28;1.10;7.20
516;DHT22;244;48.508;9.052;2023-04-04T03:15:59;1.10;7.20
516;DHT22;244;48.508;9.052;2023-04-04T03:18:29;1.10;7.20
516;DHT22;244;48.508;9.052;2023-04-04T03:20:56;1.00;7.20
516;DHT22;244;48.508;9.052;2023-04-04T03:23:22;1.00;7.30
516;DHT22;244;48.508;9.052;2023-04-04T03:25:51;1.00;7.30
516;DHT22;244;48.508;9.052;2023-04-04T03:28:19;1.00;7.40
516;DHT22;244;48.508;9.052;2023-04-04T03:30:46;1.00;7.40
516;DHT22;244;48.508;9.052;2023-04-04T03:33:13;1.00;7.40
516;DHT22;244;48.508;9.052;2023-04-04T03:35:40;0.90;7.40
516;DHT22;244;48.508;9.052;2023-04-04T03:38:07;0.90;7.40
516;DHT22;244;48.508;9.052;2023-04-04T03:40:35;0.90;7.60
516;DHT22;244;48.508;9.052;2023-04-04T03:43:05;0.90;7.60
516;DHT22;244;48.508;9.052;2023-04-04T03:45:32;0.90;7.70
516;DHT22;244;48.508;9.052;2023-04-04T03:48:00;0.90;7.70
516;DHT22;244;48.508;9.052;2023-04-04T03:50:27;0.90;7.70
516;DHT22;244;48.508;9.052;2023-04-04T03:52:55;0.90;7.70
516;DHT22;244;48.508;9.052;2023-04-04T03:55:22;0.80;7.60
516;DHT22;244;48.508;9.052;2023-04-04T03:57:50;0.80;7.70
516;DHT22;244;48.508;9.052;2023-04-04T04:00:19;0.80;7.70
516;DHT22;244;48.508;9.052;2023-04-04T04:02:46;0.80;8.40
516;DHT22;244;48.508;9.052;2023-04-04T04:05:13;0.80;7.70
516;DHT22;244;48.508;9.052;2023-04-04T04:07:42;0.80;7.70
516;DHT22;244;48.508;9.052;2023-04-04T04:10:11;0.80;7.70
516;DHT22;244;48.508;9.052;2023-04-04T04:12:39;0.80;7.70
516;DHT22;244;48.508;9.052;2023-04-04T04:15:07;0.80;7.80
516;DHT22;244;48.508;9.052;2023-04-04T04:17:37;0.80;7.80
516;DHT22;244;48.508;9.052;2023-04-04T04:20:06;0.70;7.70
516;DHT22;244;48.508;9.052;2023-04-04T04:22:34;0.70;7.70
516;DHT22;244;48.508;9.052;2023-04-04T04:25:01;0.70;7.80
516;DHT22;244;48.508;9.052;2023-04-04T04:27:28;0.70;7.70
516;DHT22;244;48.508;9.052;2023-04-04T04:29:55;0.70;7.80
516;DHT22;244;48.508;9.052;2023-04-04T04:32:22;0.70;7.70
516;DHT22;244;48.508;9.052;2023-04-04T04:34:52;0.70;7.80
516;DHT22;244;48.508;9.052;2023-04-04T04:37:19;0.70;7.80
516;DHT22;244;48.508;9.052;2023-04-04T04:39:46;0.70;7.80
516;DHT22;244;48.508;9.052;2023-04-04T04:42:12;0.70;7.80
516;DHT22;244;48.508;9.052;2023-04-04T04:44:39;0.70;7.80
516;DHT22;244;48.508;9.052;2023-04-04T04:47:06;0.70;7.80
516;DHT22;244;48.508;9.052;2023-04-04T04:49:33;0.70;7.70
516;DHT22;244;48.508;9.052;2023-04-04T04:52:01;0.70;7.60
516;DHT22;244;48.508;9.052;2023-04-04T04:54:28;0.70;7.60
516;DHT22;244;48.508;9.052;2023-04-04T04:56:55;0.70;7.60
516;DHT22;244;48.508;9.052;2023-04-04T04:59:22;0.80;7.60
516;DHT22;244;48.508;9.052;2023-04-04T05:01:49;0.80;7.60
516;DHT22;244;48.508;9.052;2023-04-04T05:04:15;0.80;7.50
516;DHT22;244;48.508;9.052;2023-04-04T05:06:43;0.80;7.50
516;DHT22;244;48.508;9.052;2023-04-04T05:09:11;0.80;7.50
516;DHT22;244;48.508;9.052;2023-04-04T05:11:38;0.80;7.50
516;DHT22;244;48.508;9.052;2023-04-04T05:14:05;0.90;7.50
516;DHT22;244;48.508;9.052;2023-04-04T05:16:32;0.90;7.50
516;DHT22;244;48.508;9.052;2023-04-04T05:19:00;0.90;7.40
516;DHT22;244;48.508;9.052;2023-04-04T05:21:26;0.90;7.40
516;DHT22;244;48.508;9.052;2023-04-04T05:23:54;0.90;7.30
516;DHT22;244;48.508;9.052;2023-04-04T05:26:23;1.00;7.30
516;DHT22;244;48.508;9.052;2023-04-04T05:28:50;1.00;7.30
516;DHT22;244;48.508;9.052;2023-04-04T05:31:16;1.00;7.90
516;DHT22;244;48.508;9.052;2023-04-04T05:33:44;1.10;7.30
516;DHT22;244;48.508;9.052;2023-04-04T05:36:11;1.10;7.20
516;DHT22;244;48.508;9.052;2023-04-04T05:38:38;1.10;7.20
516;DHT22;244;48.508;9.052;2023-04-04T05:41:05;1.20;7.20
516;DHT22;244;48.508;9.052;2023-04-04T05:43:33;1.20;7.10
516;DHT22;244;48.508;9.052;2023-04-04T05:46:00;1.30;7.20
516;DHT22;244;48.508;9.052;2023-04-04T05:48:27;1.30;7.10
516;DHT22;244;48.508;9.052;2023-04-04T05:50:53;1.40;7.00
516;DHT22;244;48.508;9.052;2023-04-04T05:53:21;1.40;7.00
516;DHT22;244;48.508;9.052;2023-04-04T05:55:50;1.50;7.00
516;DHT22;244;48.508;9.052;2023-04-04T05:58:17;1.50;6.90
516;DHT22;244;48.508;9.052;2023-04-04T06:00:45;1.60;6.80
516;DHT22;244;48.508;9.052;2023-04-04T06:03:12;1.70;6.80
516;DHT22;244;48.508;9.052;2023-04-04T06:05:41;1.70;6.60
516;DHT22;244;48.508;9.052;2023-04-04T06:08:08;1.80;6.50
516;DHT22;244;48.508;9.052;2023-04-04T06:10:35;1.90;6.50
516;DHT22;244;48.508;9.052;2023-04-04T06:13:02;2.00;6.50
516;DHT22;244;48.508;9.052;2023-04-04T06:15:29;2.00;6.10
516;DHT22;244;48.508;9.052;2023-04-04T06:17:57;2.10;6.20
516;DHT22;244;48.508;9.052;2023-04-04T06:20:24;2.20;6.20
516;DHT22;244;48.508;9.052;2023-04-04T06:22:51;2.20;6.00
516;DHT22;244;48.508;9.052;2023-04-04T06:25:18;2.30;5.80
516;DHT22;244;48.508;9.052;2023-04-04T06:27:46;2.40;5.80
516;DHT22;244;48.508;9.052;2023-04-04T06:30:13;2.40;5.70
516;DHT22;244;48.508;9.052;2023-04-04T06:32:41;2.50;5.50
516;DHT22;244;48.508;9.052;2023-04-04T06:35:10;2.60;5.40
516;DHT22;244;48.508;9.052;2023-04-04T06:37:36;2.70;5.40
516;DHT22;244;48.508;9.052;2023-04-04T06:40:04;2.80;5.20
516;DHT22;244;48.508;9.052;2023-04-04T06:42:31;2.90;4.70
516;DHT22;244;48.508;9.052;2023-04-04T06:44:58;2.90;4.70
516;DHT22;244;48.508;9.052;2023-04-04T06:47:25;3.00;4.60
516;DHT22;244;48.508;9.052;2023-04-04T06:49:52;3.10;4.30
516;DHT22;244;48.508;9.052;2023-04-04T06:52:20;3.10;3.90
516;DHT22;244;48.508;9.052;2023-04-04T06:54:48;3.20;3.70
516;DHT22;244;48.508;9.052;2023-04-04T06:57:15;3.20;3.00
516;DHT22;244;48.508;9.052;2023-04-04T06:59:43;3.30;2.90
516;DHT22;244;48.508;9.052;2023-04-04T07:02:10;3.30;3.40
516;DHT22;244;48.508;9.052;2023-04-04T07:04:37;3.40;2.80
516;DHT22;244;48.508;9.052;2023-04-04T07:07:04;3.40;2.50
516;DHT22;244;48.508;9.052;2023-04-04T07:09:32;3.50;2.60
516;DHT22;244;48.508;9.052;2023-04-04T07:11:59;3.50;2.60
516;DHT22;244;48.508;9.052;2023-04-04T07:14:26;3.60;2.60
516;DHT22;244;48.508;9.052;2023-04-04T07:16:53;3.70;2.50
516;DHT22;244;48.508;9.052;2023-04-04T07:19:20;3.70;2.30
516;DHT22;244;48.508;9.052;2023-04-04T07:21:48;3.80;2.20
516;DHT22;244;48.508;9.052;2023-04-04T07:24:15;3.90;2.50
516;DHT22;244;48.508;9.052;2023-04-04T07:26:44;3.90;1.50
516;DHT22;244;48.508;9.052;2023-04-04T07:29:10;4.00;1.40
516;DHT22;244;48.508;9.052;2023-04-04T07:31:38;4.00;1.00
516;DHT22;244;48.508;9.052;2023-04-04T07:34:05;4.10;1.00
516;DHT22;244;48.508;9.052;2023-04-04T07:36:31;4.10;1.00
516;DHT22;244;48.508;9.052;2023-04-04T07:38:58;4.20;1.00
516;DHT22;244;48.508;9.052;2023-04-04T07:41:25;4.20;1.00
516;DHT22;244;48.508;9.052;2023-04-04T07:43:53;4.20;1.00
516;DHT22;244;48.508;9.052;2023-04-04T07:46:20;4.30;1.00
516;DHT22;244;48.508;9.052;2023-04-04T07:48:48;4.30;1.00
516;DHT22;244;48.508;9.052;2023-04-04T07:51:15;4.40;1.00
516;DHT22;244;48.508;9.052;2023-04-04T07:53:42;4.40;1.00
516;DHT22;244;48.508;9.052;2023-04-04T07:56:09;4.50;1.00
516;DHT22;244;48.508;9.052;2023-04-04T07:58:36;4.50;1.00
516;DHT22;244;48.508;9.052;2023-04-04T08:01:04;4.60;1.00
516;DHT22;244;48.508;9.052;2023-04-04T08:03:31;4.70;1.00
516;DHT22;244;48.508;9.052;2023-04-04T08:05:57;4.70;1.00
516;DHT22;244;48.508;9.052;2023-04-04T08:08:25;4.80;1.00
516;DHT22;244;48.508;9.052;2023-04-04T08:10:51;4.90;1.00
516;DHT22;244;48.508;9.052;2023-04-04T08:13:18;4.90;1.00
516;DHT22;244;48.508;9.052;2023-04-04T08:15:45;5.00;1.00
516;DHT22;244;48.508;9.052;2023-04-04T08:18:14;5.00;1.00
516;DHT22;244;48.508;9.052;2023-04-04T08:20:40;5.10;1.00
516;DHT22;244;48.508;9.052;2023-04-04T08:23:07;5.20;1.00
516;DHT22;244;48.508;9.052;2023-04-04T08:25:35;5.20;1.00
516;DHT22;244;48.508;9.052;2023-04-04T08:28:02;5.30;1.00
516;DHT22;244;48.508;9.052;2023-04-04T08:30:29;5.30;1.00
516;DHT22;244;48.508;9.052;2023-04-04T08:32:57;5.40;1.00
516;DHT22;244;48.508;9.052;2023-04-04T08:35:25;5.40;1.00
516;DHT22;244;48.508;9.052;2023-04-04T08:37:52;5.50;1.00
516;DHT22;244;48.508;9.052;2023-04-04T08:40:19;5.50;1.00
516;DHT22;244;48.508;9.052;2023-04-04T08:42:46;5.50;1.00
516;DHT22;244;48.508;9.052;2023-04-04T08:45:16;5.50;1.00
516;DHT22;244;48.508;9.052;2023-04-04T08:47:45;5.50;1.00
516;DHT22;244;48.508;9.052;2023-04-04T08:50:15;5.60;1.00
516;DHT22;244;48.508;9.052;2023-04-04T08:52:44;5.60;1.00
516;DHT22;244;48.508;9.052;2023-04-04T08:55:12;5.70;1.00
516;DHT22;244;48.508;9.052;2023-04-04T08:57:39;5.80;1.00
516;DHT22;244;48.508;9.052;2023-04-04T09:00:07;5.80;1.00
516;DHT22;244;48.508;9.052;2023-04-04T09:02:41;5.90;1.00
516;DHT22;244;48.508;9.052;2023-04-04T09:05:10;6.00;1.00
516;DHT22;244;48.508;9.052;2023-04-04T09:07:39;6.10;1.00
516;DHT22;244;48.508;9.052;2023-04-04T09:10:09;6.10;1.00
516;DHT22;244;48.508;9.052;2023-04-04T09:12:38;6.20;1.00
516;DHT22;244;48.508;9.052;2023-04-04T09:15:08;6.30;1.00
516;DHT22;244;48.508;9.052;2023-04-04T09:17:35;6.40;1.00
516;DHT22;244;48.508;9.052;2023-04-04T09:20:11;6.50;1.00
516;DHT22;244;48.508;9.052;2023-04-04T09:22:50;6.50;1.00
516;DHT22;244;48.508;9.052;2023-04-04T09:25:18;6.50;1.00
516;DHT22;244;48.508;9.052;2023-04-04T09:27:45;6.50;1.00
516;DHT22;244;48.508;9.052;2023-04-04T09:30:14;6.50;1.00
516;DHT22;244;48.508;9.052;2023-04-04T09:32:41;6.50;1.00
516;DHT22;244;48.508;9.052;2023-04-04T09:35:09;6.60;1.00
516;DHT22;244;48.508;9.052;2023-04-04T09:37:39;6.60;1.00
516;DHT22;244;48.508;9.052;2023-04-04T09:40:08;6.60;1.00
516;DHT22;244;48.508;9.052;2023-04-04T09:42:37;6.70;1.00
516;DHT22;244;48.508;9.052;2023-04-04T09:45:05;6.70;1.00
516;DHT22;244;48.508;9.052;2023-04-04T09:47:39;6.70;1.00
516;DHT22;244;48.508;9.052;2023-04-04T09:50:08;6.80;1.00
516;DHT22;244;48.508;9.052;2023-04-04T09:52:35;6.90;1.00
516;DHT22;244;48.508;9.052;2023-04-04T09:55:03;7.00;1.00
516;DHT22;244;48.508;9.052;2023-04-04T09:57:32;7.10;1.00
516;DHT22;244;48.508;9.052;2023-04-04T10:00:03;7.20;1.00
516;DHT22;244;48.508;9.052;2023-04-04T10:02:32;7.20;1.00
516;DHT22;244;48.508;9.052;2023-04-04T10:05:00;7.20;1.00
516;DHT22;244;48.508;9.052;2023-04-04T10:07:30;7.10;1.00
516;DHT22;244;48.508;9.052;2023-04-04T10:10:00;7.20;1.00
516;DHT22;244;48.508;9.052;2023-04-04T10:12:29;7.20;1.00
516;DHT22;244;48.508;9.052;2023-04-04T10:14:58;7.20;1.00
516;DHT22;244;48.508;9.052;2023-04-04T10:17:29;7.20;1.00
516;DHT22;244;48.508;9.052;2023-04-04T10:19:58;7.20;1.00
516;DHT22;244;48.508;9.052;2023-04-04T10:22:26;7.20;1.00
516;DHT22;244;48.508;9.052;2023-04-04T10:24:54;7.30;1.00
516;DHT22;244;48.508;9.052;2023-04-04T10:27:21;7.30;1.00
516;DHT22;244;48.508;9.052;2023-04-04T10:29:48;7.40;1.00
516;DHT22;244;48.508;9.052;2023-04-04T10:32:21;7.40;1.00
516;DHT22;244;48.508;9.052;2023-04-04T10:34:55;7.50;1.00
516;DHT22;244;48.508;9.052;2023-04-04T10:37:28;7.50;1.00
516;DHT22;244;48.508;9.052;2023-04-04T10:40:02;7.50;1.00
516;DHT22;244;48.508;9.052;2023-04-04T10:42:34;7.70;1.00
516;DHT22;244;48.508;9.052;2023-04-04T10:45:06;7.80;1.00
516;DHT22;244;48.508;9.052;2023-04-04T10:47:33;7.90;1.00
516;DHT22;244;48.508;9.052;2023-04-04T10:50:03;7.90;1.00
516;DHT22;244;48.508;9.052;2023-04-04T10:52:32;7.90;1.00
516;DHT22;244;48.508;9.052;2023-04-04T10:55:03;7.90;1.00
516;DHT22;244;48.508;9.052;2023-04-04T10:57:31;8.00;1.00
516;DHT22;244;48.508;9.052;2023-04-04T11:00:01;8.00;1.00
516;DHT22;244;48.508;9.052;2023-04-04T11:02:44;8.10;1.00
516;DHT22;244;48.508;9.052;2023-04-04T11:05:17;8.20;1.00
516;DHT22;244;48.508;9.052;2023-04-04T11:07:44;8.30;1.00
516;DHT22;244;48.508;9.052;2023-04-04T11:10:20;8.40;1.00
516;DHT22;244;48.508;9.052;2023-04-04T11:12:51;8.50;1.00
516;DHT22;244;48.508;9.052;2023-04-04T11:15:20;8.60;1.00
516;DHT22;244;48.508;9.052;2023-04-04T11:17:53;8.60;1.00
516;DHT22;244;48.508;9.052;2023-04-04T11:20:23;8.60;1.00
516;DHT22;244;48.508;9.052;2023-04-04T11:23:05;8.70;1.00
516;DHT22;244;48.508;9.052;2023-04-04T11:25:35;8.70;1.00
516;DHT22;244;48.508;9.052;2023-04-04T11:28:12;8.70;1.00
516;DHT22;244;48.508;9.052;2023-04-04T11:30:41;8.60;1.00
516;DHT22;244;48.508;9.052;2023-04-04T11:33:25;8.60;1.00
516;DHT22;244;48.508;9.052;2023-04-04T11:35:59;8.70;1.00
516;DHT22;244;48.508;9.052;2023-04-04T11:38:29;8.90;1.00
516;DHT22;244;48.508;9.052;2023-04-04T11:40:56;9.00;1.00
516;DHT22;244;48.508;9.052;2023-04-04T11:43:25;9.10;1.00
516;DHT22;244;48.508;9.052;2023-04-04T11:45:53;9.10;1.00
516;DHT22;244;48.508;9.052;2023-04-04T11:48:21;9.20;1.00
516;DHT22;244;48.508;9.052;2023-04-04T11:50:49;9.20;1.00
516;DHT22;244;48.508;9.052;2023-04-04T11:53:19;9.30;1.00
516;DHT22;244;48.508;9.052;2023-04-04T11:55:48;9.30;1.00
516;DHT22;244;48.508;9.052;2023-04-04T11:58:16;9.30;1.00
516;DHT22;244;48.508;9.052;2023-04-04T12:00:45;9.40;1.00
516;DHT22;244;48.508;9.052;2023-04-04T12:03:14;9.40;1.00
516;DHT22;244;48.508;9.052;2023-04-04T12:05:45;9.40;1.00
516;DHT22;244;48.508;9.052;2023-04-04T12:08:13;9.40;1.00
516;DHT22;244;48.508;9.052;2023-04-04T12:10:44;9.50;1.00
516;DHT22;244;48.508;9.052;2023-04-04T12:13:10;9.60;1.00
516;DHT22;244;48.508;9.052;2023-04-04T12:15:37;9.70;1.00
516;DHT22;244;48.508;9.052;2023-04-04T12:18:06;9.80;1.00
516;DHT22;244;48.508;9.052;2023-04-04T12:20:36;9.90;1.00
516;DHT22;244;48.508;9.052;2023-04-04T12:23:03;10.00;1.00
516;DHT22;244;48.508;9.052;2023-04-04T12:25:30;10.10;1.00
516;DHT22;244;48.508;9.052;2023-04-04T12:28:01;10.00;1.00
516;DHT22;244;48.508;9.052;2023-04-04T12:30:29;10.00;1.00
516;DHT22;244;48.508;9.052;2023-04-04T12:32:58;10.00;1.00
516;DHT22;244;48.508;9.052;2023-04-04T12:35:25;10.10;1.00
516;DHT22;244;48.508;9.052;2023-04-04T12:38:00;10.10;1.00
516;DHT22;244;48.508;9.052;2023-04-04T12:40:34;10.10;1.00
516;DHT22;244;48.508;9.052;2023-04-04T12:43:05;10.20;1.00
516;DHT22;244;48.508;9.052;2023-04-04T12:45:35;10.40;1.00
516;DHT22;244;48.508;9.052;2023-04-04T12:48:09;10.60;1.00
516;DHT22;244;48.508;9.052;2023-04-04T12:50:48;10.70;1.00
516;DHT22;244;48.508;9.052;2023-04-04T12:53:19;10.90;1.00
516;DHT22;244;48.508;9.052;2023-04-04T12:55:47;11.00;1.00
516;DHT22;244;48.508;9.052;2023-04-04T12:58:18;11.10;1.00
516;DHT22;244;48.508;9.052;2023-04-04T13:00:45;11.00;1.00
516;DHT22;244;48.508;9.052;2023-04-04T13:03:13;11.00;1.00
516;DHT22;244;48.508;9.052;2023-04-04T13:05:42;10.90;1.00
516;DHT22;244;48.508;9.052;2023-04-04T13:08:09;10.80;1.00
516;DHT22;244;48.508;9.052;2023-04-04T13:10:58;10.80;1.00
516;DHT22;244;48.508;9.052;2023-04-04T13:13:32;10.90;1.00
516;DHT22;244;48.508;9.052;2023-04-04T13:16:00;11.00;1.00
516;DHT22;244;48.508;9.052;2023-04-04T13:18:34;11.00;1.00
516;DHT22;244;48.508;9.052;2023-04-04T13:21:02;11.10;1.00
516;DHT22;244;48.508;9.052;2023-04-04T13:23:29;11.10;1.00
516;DHT22;244;48.508;9.052;2023-04-04T13:25:57;11.10;1.00
516;DHT22;244;48.508;9.052;2023-04-04T13:28:24;11.20;1.00
516;DHT22;244;48.508;9.052;2023-04-04T13:30:53;11.30;1.00
516;DHT22;244;48.508;9.052;2023-04-04T13:33:20;11.40;1.00
516;DHT22;244;48.508;9.052;2023-04-04T13:35:48;11.50;1.00
516;DHT22;244;48.508;9.052;2023-04-04T13:38:15;11.60;1.00
516;DHT22;244;48.508;9.052;2023-04-04T13:40:42;11.70;1.00
516;DHT22;244;48.508;9.052;2023-04-04T13:43:10;11.80;1.00
516;DHT22;244;48.508;9.052;2023-04-04T13:45:37;11.70;1.00
516;DHT22;244;48.508;9.052;2023-04-04T13:48:05;11.80;1.00
516;DHT22;244;48.508;9.052;2023-04-04T13:50:34;11.80;1.00
516;DHT22;244;48.508;9.052;2023-04-04T13:53:01;11.80;1.00
516;DHT22;244;48.508;9.052;2023-04-04T13:55:27;11.70;1.00
516;DHT22;244;48.508;9.052;2023-04-04T13:57:54;11.60;1.00
516;DHT22;244;48.508;9.052;2023-04-04T14:00:22;11.60;1.00
516;DHT22;244;48.508;9.052;2023-04-04T14:02:49;11.50;1.00
516;DHT22;244;48.508;9.052;2023-04-04T14:05:18;11.50;1.00
516;DHT22;244;48.508;9.052;2023-04-04T14:07:45;11.60;1.00
516;DHT22;244;48.508;9.052;2023-04-04T14:10:12;11.60;1.00
516;DHT22;244;48.508;9.052;2023-04-04T14:12:39;11.70;1.00
516;DHT22;244;48.508;9.052;2023-04-04T14:15:06;11.80;1.00
516;DHT22;244;48.508;9.052;2023-04-04T14:17:34;11.90;1.00
516;DHT22;244;48.508;9.052;2023-04-04T14:20:01;12.00;1.00
516;DHT22;244;48.508;9.052;2023-04-04T14:22:29;12.00;1.00
516;DHT22;244;48.508;9.052;2023-04-04T14:24:58;12.00;1.00
516;DHT22;244;48.508;9.052;2023-04-04T14:27:24;11.90;1.00
516;DHT22;244;48.508;9.052;2023-04-04T14:29:51;12.00;1.00
516;DHT22;244;48.508;9.052;2023-04-04T14:32:18;12.00;1.00
516;DHT22;244;48.508;9.052;2023-04-04T14:34:45;12.10;1.00
516;DHT22;244;48.508;9.052;2023-04-04T14:37:12;12.20;1.00
516;DHT22;244;48.508;9.052;2023-04-04T14:39:40;12.30;1.00
516;DHT22;244;48.508;9.052;2023-04-04T14:42:07;12.30;1.00
516;DHT22;244;48.508;9.052;2023-04-04T14:44:34;12.30;1.00
516;DHT22;244;48.508;9.052;2023-04-04T14:47:01;12.50;1.00
516;DHT22;244;48.508;9.052;2023-04-04T14:49:27;13.00;1.00
516;DHT22;244;48.508;9.052;2023-04-04T14:51:54;13.60;1.00
516;DHT22;244;48.508;9.052;2023-04-04T14:54:21;14.20;1.00
516;DHT22;244;48.508;9.052;2023-04-04T14:56:49;14.90;1.00
516;DHT22;244;48.508;9.052;2023-04-04T14:59:17;15.50;1.00
516;DHT22;244;48.508;9.052;2023-04-04T15:01:44;16.20;1.00
516;DHT22;244;48.508;9.052;2023-04-04T15:04:13;17.00;1.00
516;DHT22;244;48.508;9.052;2023-04-04T15:06:40;17.90;1.00
516;DHT22;244;48.508;9.052;2023-04-04T15:09:07;18.50;1.00
516;DHT22;244;48.508;9.052;2023-04-04T15:11:34;18.80;1.00
516;DHT22;244;48.508;9.052;2023-04-04T15:14:02;19.50;1.00
516;DHT22;244;48.508;9.052;2023-04-04T15:16:29;20.40;1.00
516;DHT22;244;48.508;9.052;2023-04-04T15:18:58;21.20;1.00
516;DHT22;244;48.508;9.052;2023-04-04T15:21:26;21.80;1.00
516;DHT22;244;48.508;9.052;2023-04-04T15:23:53;22.30;1.00
516;DHT22;244;48.508;9.052;2023-04-04T15:26:20;22.40;1.00
516;DHT22;244;48.508;9.052;2023-04-04T15:28:47;22.20;1.00
516;DHT22;244;48.508;9.052;2023-04-04T15:31:16;21.70;1.00
516;DHT22;244;48.508;9.052;2023-04-04T15:33:43;21.20;1.00
516;DHT22;244;48.508;9.052;2023-04-04T15:36:10;20.80;1.00
516;DHT22;244;48.508;9.052;2023-04-04T15:38:36;20.20;1.00
516;DHT22;244;48.508;9.052;2023-04-04T15:41:05;19.70;1.00
516;DHT22;244;48.508;9.052;2023-04-04T15:43:34;19.30;1.00
516;DHT22;244;48.508;9.052;2023-04-04T15:46:01;18.90;1.00
516;DHT22;244;48.508;9.052;2023-04-04T15:48:29;18.50;1.00
516;DHT22;244;48.508;9.052;2023-04-04T15:50:59;18.20;1.00
516;DHT22;244;48.508;9.052;2023-04-04T15:53:27;17.90;1.00
516;DHT22;244;48.508;9.052;2023-04-04T15:55:54;17.50;1.00
516;DHT22;244;48.508;9.052;2023-04-04T15:58:22;17.20;1.00
516;DHT22;244;48.508;9.052;2023-04-04T16:00:50;16.90;1.00
516;DHT22;244;48.508;9.052;2023-04-04T16:03:17;16.60;1.00
516;DHT22;244;48.508;9.052;2023-04-04T16:05:46;16.30;1.00
516;DHT22;244;48.508;9.052;2023-04-04T16:08:13;15.90;1.00
516;DHT22;244;48.508;9.052;2023-04-04T16:10:40;15.60;1.00
516;DHT22;244;48.508;9.052;2023-04-04T16:13:08;15.40;1.00
516;DHT22;244;48.508;9.052;2023-04-04T16:15:35;14.90;1.00
516;DHT22;244;48.508;9.052;2023-04-04T16:18:02;14.40;1.00
516;DHT22;244;48.508;9.052;2023-04-04T16:20:29;13.90;1.00
516;DHT22;244;48.508;9.052;2023-04-04T16:22:57;13.40;1.00
516;DHT22;244;48.508;9.052;2023-04-04T16:25:24;13.00;1.00
516;DHT22;244;48.508;9.052;2023-04-04T16:27:51;12.60;1.00
516;DHT22;244;48.508;9.052;2023-04-04T16:30:18;12.30;1.00
516;DHT22;244;48.508;9.052;2023-04-04T16:32:45;12.00;1.00
516;DHT22;244;48.508;9.052;2023-04-04T16:35:12;11.70;1.00
516;DHT22;244;48.508;9.052;2023-04-04T16:37:39;11.40;1.00
516;DHT22;244;48.508;9.052;2023-04-04T16:40:08;11.20;1.00
516;DHT22;244;48.508;9.052;2023-04-04T16:42:35;10.90;1.00
516;DHT22;244;48.508;9.052;2023-04-04T16:45:03;10.80;1.00
516;DHT22;244;48.508;9.052;2023-04-04T16:47:32;10.60;1.00
516;DHT22;244;48.508;9.052;2023-04-04T16:49:59;10.50;1.00
516;DHT22;244;48.508;9.052;2023-04-04T16:52:26;10.40;1.00
516;DHT22;244;48.508;9.052;2023-04-04T16:54:53;10.20;1.00
516;DHT22;244;48.508;9.052;2023-04-04T16:57:21;10.10;1.00
516;DHT22;244;48.508;9.052;2023-04-04T16:59:48;10.10;1.00
516;DHT22;244;48.508;9.052;2023-04-04T17:02:15;10.00;1.00
516;DHT22;244;48.508;9.052;2023-04-04T17:04:43;9.90;1.00
516;DHT22;244;48.508;9.052;2023-04-04T17:07:10;9.80;1.00
516;DHT22;244;48.508;9.052;2023-04-04T17:09:36;9.70;1.00